tititudorancea.com
Station Historical Data
Daily Summary for October 9, 2018 Units:  Metric    English   Both
« Previous Day
Next Day »
Daily Weekly Monthly Yearly Custom
  High: Low: Average:
Temperature: -17.8 °C 7.6 °C 12.5 °C
Dew Point: -17.8 °C 4.8 °C 10.7 °C
Humidity: Humidity % 77 % 89 %
Wind Speed: 0 km/h 0 km/h 14.3 km/h
Wind Gust: 0 km/h - -
Wind:- - South
Pressure: 0 hPa 1011.7 hPa -
Precipitation: 9.6 mm    
Historical Graphs
 
 
Ararat weather Find more about Weather in Ararat, AU


 



 


Tabular Data for October 9, 2018
Time Temperature Dew Point Pressure Wind Wind Speed Wind Gust Humidity Rainfall Rate (Hourly)
-17.8 °C -17.8 °C 0 hPa Calm     Humidity % 0 mm
00:04 14.1 °C 10.3 °C 1013.1 hPa SSE 3.7 km/h 2.6 km/h 78 % 0 mm
00:09 14.1 °C 10.3 °C 1013.4 hPa Calm     78 % 0 mm
00:14 14.1 °C 10.3 °C 1013.1 hPa Calm     78 % 0 mm
00:19 14 °C 10.4 °C 1013.1 hPa SSE 1.9 km/h   79 % 0 mm
00:24 13.9 °C 10.3 °C 1013.1 hPa SSE 3.7 km/h 2.4 km/h 79 % 0 mm
00:29 13.8 °C 10.4 °C 1013.1 hPa SSE 5.6 km/h 3.1 km/h 80 % 0 mm
00:34 13.8 °C 10.4 °C 1013.1 hPa Calm     80 % 0 mm
00:39 13.8 °C 10.4 °C 1013.1 hPa Calm     80 % 0 mm
00:44 13.8 °C 10.4 °C 1013.1 hPa Calm     80 % 0 mm
00:49 13.8 °C 10.4 °C 1013.1 hPa Calm     80 % 0 mm
00:54 13.7 °C 10.3 °C 1012.8 hPa SSE 3.7 km/h 2.3 km/h 80 % 0 mm
00:59 13.7 °C 10.4 °C 1012.8 hPa Calm     81 % 0 mm
01:04 13.6 °C 10.4 °C 1012.8 hPa SSE 1.6 km/h 0.5 km/h 81 % 0 mm
01:09 13.6 °C 10.3 °C 1012.8 hPa Calm     81 % 0 mm
01:14 13.4 °C 10.4 °C 1012.8 hPa Calm     82 % 0 mm
01:19 13.4 °C 10.4 °C 1012.8 hPa SSE 9.7 km/h 8.2 km/h 82 % 0 mm
01:24 13.4 °C 10.4 °C 1012.8 hPa SSE 6.4 km/h 4.8 km/h 82 % 0 mm
01:29 13.5 °C 10.5 °C 1012.8 hPa SSE 3.7 km/h 0.2 km/h 82 % 0 mm
01:34 13.6 °C 10.3 °C 1012.4 hPa Calm     81 % 0 mm
01:39 13.6 °C 10.3 °C 1012.8 hPa Calm     81 % 0 mm
01:44 13.6 °C 10.6 °C 1012.8 hPa Calm     82 % 0 mm
01:49 13.5 °C 10.5 °C 1012.8 hPa SSE 3.7 km/h 2.3 km/h 82 % 0 mm
01:54 13.5 °C 10.5 °C 1012.4 hPa Calm     82 % 0 mm
01:59 13.5 °C 10.5 °C 1012.4 hPa North 4.8 km/h 5.1 km/h 82 % 0 mm
02:04 13.4 °C 10.4 °C 1012.4 hPa SSE 9.3 km/h 7.7 km/h 82 % 0 mm
02:09 13.4 °C 10.4 °C 1012.4 hPa SSE 5.6 km/h 4.7 km/h 82 % 0 mm
02:14 13.4 °C 10.4 °C 1012.4 hPa Calm     82 % 0 mm
02:19 13.4 °C 10.4 °C 1012.4 hPa Calm     82 % 0 mm
02:24 13.4 °C 10.4 °C 1012.4 hPa Calm     82 % 0 mm
02:29 13.4 °C 10.4 °C 1012.4 hPa Calm     82 % 0 mm
02:34 13.4 °C 10.4 °C 1012.4 hPa Calm     82 % 0 mm
02:39 13.4 °C 10.6 °C 1012.4 hPa SSE 6.4 km/h 2.3 km/h 83 % 0 mm
02:44 13.4 °C 10.6 °C 1012.4 hPa Calm     83 % 0 mm
02:49 13.4 °C 10.6 °C 1012.4 hPa Calm     83 % 0 mm
02:54 13.4 °C 10.6 °C 1012.1 hPa North 5.6 km/h 1.6 km/h 83 % 0 mm
02:59 13.4 °C 10.6 °C 1012.1 hPa SSE 3.2 km/h 2.7 km/h 83 % 0 mm
03:04 13.4 °C 10.7 °C 1012.1 hPa SSE 3.7 km/h 2.9 km/h 84 % 0 mm
03:09 13.4 °C 10.7 °C 1012.1 hPa SSE 3.7 km/h 2.3 km/h 84 % 0 mm
03:14 13.4 °C 10.7 °C 1012.1 hPa SSE 1.9 km/h 1 km/h 84 % 0 mm
03:19 13.4 °C 10.7 °C 1012.1 hPa SSE 1.9 km/h   84 % 0 mm
03:24 13.3 °C 10.9 °C 1012.1 hPa SSE 5.6 km/h 0.6 km/h 85 % 0 mm
03:29 13.3 °C 10.9 °C 1012.1 hPa Calm     85 % 0 mm
03:34 13.3 °C 10.9 °C 1012.1 hPa SSE 6.4 km/h 6.9 km/h 85 % 0 mm
03:39 13.4 °C 10.7 °C 1012.1 hPa SSE 9.7 km/h 6 km/h 84 % 0 mm
03:44 13.6 °C 10.6 °C 1012.1 hPa SSE 11.1 km/h 5 km/h 82 % 0 mm
03:49 13.9 °C 10.6 °C 1012.1 hPa SSE 9.3 km/h 5 km/h 80 % 0 mm
03:54 14.2 °C 10.4 °C 1012.1 hPa SSE 7.4 km/h 3.4 km/h 78 % 0 mm
03:59 14.3 °C 10.3 °C 1012.1 hPa SSE 8 km/h 3.5 km/h 77 % 0 mm
04:04 14.3 °C 10.3 °C 1012.1 hPa SSE 7.4 km/h 3.4 km/h 77 % 0 mm
04:09 14.2 °C 10.2 °C 1012.1 hPa SSE 12.9 km/h 5.3 km/h 77 % 0 mm
04:14 14.2 °C 10.4 °C 1012.1 hPa SSE 3.7 km/h 1.8 km/h 78 % 0 mm
04:19 14.1 °C 10.3 °C 1012.1 hPa SSE 7.4 km/h 5.3 km/h 78 % 0 mm
04:24 14 °C 10.2 °C 1012.1 hPa SSE 13 km/h 9 km/h 78 % 0 mm
04:29 14 °C 10.2 °C 1012.4 hPa SSE 3.7 km/h 1.1 km/h 78 % 0 mm
04:34 13.9 °C 10.3 °C 1012.4 hPa SSE 3.7 km/h 0.8 km/h 79 % 0 mm
04:39 13.9 °C 10.3 °C 1012.4 hPa Calm     79 % 0 mm
04:44 13.8 °C 10.3 °C 1012.4 hPa SSE 3.7 km/h 2.7 km/h 79 % 0 mm
04:49 13.8 °C 10.4 °C 1012.4 hPa Calm     80 % 0 mm
04:54 13.7 °C 10.5 °C 1012.8 hPa Calm     81 % 0 mm
04:59 13.7 °C 10.4 °C 1012.8 hPa Calm     81 % 0 mm
05:04 13.6 °C 10.4 °C 1012.8 hPa Calm     81 % 0 mm
05:09 13.6 °C 10.6 °C 1012.8 hPa Calm     82 % 0 mm
05:14 13.4 °C 10.6 °C 1012.8 hPa Calm     83 % 0 mm
05:19 13.3 °C 10.5 °C 1012.8 hPa SSE 1.9 km/h   83 % 0 mm
05:24 13.3 °C 10.4 °C 1012.4 hPa Calm     83 % 0 mm
05:29 13.2 °C 10.6 °C 1012.4 hPa SSE 3.2 km/h 2.9 km/h 84 % 0 mm
05:34 13.2 °C 10.5 °C 1012.4 hPa SSE 8 km/h 7.4 km/h 84 % 0 mm
05:39 13.1 °C 10.6 °C 1012.4 hPa SSE 8 km/h 2.4 km/h 85 % 0 mm
05:44 13 °C 10.6 °C 1012.4 hPa SSE 7.4 km/h 3.1 km/h 85 % 0 mm
05:49 13 °C 10.7 °C 1012.4 hPa SSE 3.7 km/h 1.3 km/h 86 % 0 mm
05:54 13 °C 10.6 °C 1012.1 hPa SSE 3.7 km/h 1.9 km/h 85 % 0 mm
05:59 13 °C 10.7 °C 1012.1 hPa SSE 5.6 km/h 4.7 km/h 86 % 0 mm
06:04 12.9 °C 10.7 °C 1012.1 hPa SSE 7.4 km/h 4.7 km/h 86 % 0 mm
06:09 12.9 °C 10.6 °C 1012.1 hPa SSE 9.3 km/h 6.1 km/h 86 % 0.2 mm
06:14 12.8 °C 10.6 °C 1011.7 hPa SSE 12.9 km/h 8.5 km/h 86 % 0.2 mm
06:19 12.8 °C 10.7 °C 1011.7 hPa SSE 14.8 km/h 10.6 km/h 87 % 0.2 mm
06:24 12.8 °C 10.7 °C 1011.7 hPa SSE 11.1 km/h 8.2 km/h 87 % 0.2 mm
06:29 12.8 °C 10.7 °C 1011.7 hPa SSE 13 km/h 3.9 km/h 87 % 0.2 mm
06:34 12.8 °C 10.7 °C 1012.1 hPa SSE 3.7 km/h 0.3 km/h 87 % 0.2 mm
06:39 12.8 °C 10.7 °C 1012.1 hPa Calm     87 % 0.2 mm
06:44 12.8 °C 10.7 °C 1012.1 hPa SSE 5.6 km/h 0.5 km/h 87 % 0.2 mm
06:49 12.8 °C 10.7 °C 1012.1 hPa SSE 5.6 km/h 2.9 km/h 87 % 0.2 mm
06:54 12.7 °C 10.6 °C 1012.1 hPa SSE 5.6 km/h 3.7 km/h 87 % 0.2 mm
06:59 12.8 °C 10.8 °C 1012.4 hPa SSE 7.4 km/h 5.3 km/h 88 % 0.2 mm
07:04 12.8 °C 10.7 °C 1012.4 hPa SSE 7.4 km/h 5.6 km/h 87 % 0.2 mm
07:09 12.8 °C 10.8 °C 1012.4 hPa SSE 7.4 km/h 5.5 km/h 88 % 0 mm
07:14 12.8 °C 10.8 °C 1012.4 hPa SSE 11.3 km/h 7.2 km/h 88 % 0 mm
07:19 12.8 °C 10.8 °C 1012.4 hPa SSE 7.4 km/h 5.8 km/h 88 % 0 mm
07:24 12.8 °C 10.8 °C 1012.4 hPa SSE 8 km/h 6.6 km/h 88 % 0 mm
07:29 12.8 °C 10.9 °C 1012.4 hPa SSE 7.4 km/h 6.1 km/h 88 % 0 mm
07:34 12.9 °C 10.8 °C 1012.4 hPa SSE 9.3 km/h 5.6 km/h 87 % 0 mm
07:39 13 °C 10.9 °C 1012.4 hPa SSE 9.3 km/h 7.4 km/h 87 % 0 mm
07:44 13.1 °C 10.9 °C 1012.4 hPa SSE 6.4 km/h 4.3 km/h 87 % 0 mm
07:49 13.1 °C 11 °C 1012.8 hPa SSE 5.6 km/h 3.1 km/h 87 % 0 mm
07:54 13.1 °C 11 °C 1012.8 hPa SSE 5.6 km/h 0.6 km/h 87 % 0 mm
07:59 13.1 °C 11 °C 1012.8 hPa South 6.4 km/h 2.3 km/h 87 % 0 mm
08:04 13.2 °C 10.9 °C 1013.1 hPa SSE 7.4 km/h 3.7 km/h 86 % 0 mm
08:09 13.2 °C 10.9 °C 1013.1 hPa SSE 7.4 km/h 4.5 km/h 86 % 0 mm
08:14 13.2 °C 10.9 °C 1013.1 hPa SSE 5.6 km/h 2.9 km/h 86 % 0 mm
08:19 13.3 °C 11.2 °C 1013.1 hPa SSE 7.4 km/h 5.6 km/h 87 % 0 mm
08:24 13.3 °C 11.2 °C 1013.1 hPa SSE 6.4 km/h 3.9 km/h 87 % 0 mm
08:29 13.4 °C 11.3 °C 1013.1 hPa SSE 5.6 km/h 4 km/h 87 % 0.2 mm
08:34 13.3 °C 11.2 °C 1013.4 hPa SSE 9.7 km/h 7.1 km/h 87 % 0.2 mm
08:39 13.3 °C 11.4 °C 1013.4 hPa SSE 9.3 km/h 5.5 km/h 88 % 0.2 mm
08:44 13.3 °C 11.4 °C 1013.4 hPa SSE 13 km/h 13 km/h 88 % 0.2 mm
08:49 13.3 °C 11.4 °C 1013.4 hPa SSE 5.6 km/h 3.9 km/h 88 % 0.2 mm
08:54 13.3 °C 11.4 °C 1013.4 hPa SSE 7.4 km/h 2.7 km/h 88 % 0.2 mm
08:59 13.3 °C 11.6 °C 1013.4 hPa SSE 13 km/h 7.2 km/h 89 % 0.2 mm
09:04 13.3 °C 11.5 °C 1013.4 hPa SSE 7.4 km/h 2.6 km/h 89 % 0.2 mm
09:09 13.3 °C 11.6 °C 1013.8 hPa SSE 3.7 km/h 0.8 km/h 89 % 0.2 mm
09:14 13.3 °C 11.6 °C 1013.8 hPa SSE 6.4 km/h 3.4 km/h 89 % 0.41 mm
09:19 13.3 °C 11.5 °C 1013.4 hPa SSE 9.3 km/h 7.4 km/h 89 % 0.41 mm
09:24 13.2 °C 11.4 °C 1013.4 hPa SSE 11.1 km/h 6.9 km/h 89 % 0.41 mm
09:29 13.3 °C 11.7 °C 1013.4 hPa SSE 7.4 km/h 2.7 km/h 90 % 0.2 mm
09:34 13.2 °C 11.6 °C 1013.8 hPa SSE 11.1 km/h 4.5 km/h 90 % 0.2 mm
09:39 13.3 °C 11.7 °C 1013.8 hPa SSE 9.3 km/h 2.7 km/h 90 % 0.2 mm
09:44 13.2 °C 11.6 °C 1013.8 hPa SSE 7.4 km/h 3.5 km/h 90 % 0.2 mm
09:49 13.2 °C 11.8 °C 1013.8 hPa North 7.4 km/h 5.3 km/h 91 % 0.2 mm
09:54 13.2 °C 11.8 °C 1013.8 hPa SSE 6.4 km/h 3.7 km/h 91 % 0.41 mm
09:59 13.2 °C 11.8 °C 1013.8 hPa SSE 3.7 km/h 3.4 km/h 91 % 0.41 mm
10:04 13.3 °C 11.8 °C 1013.8 hPa SSE 9.3 km/h 3.9 km/h 91 % 0.41 mm
10:09 13.3 °C 11.8 °C 1013.8 hPa SSE 11.1 km/h 6.1 km/h 91 % 0.41 mm
10:14 13.3 °C 11.8 °C 1013.8 hPa SSE 5.6 km/h 1.4 km/h 91 % 0.2 mm
10:19 13.3 °C 11.9 °C 1013.8 hPa SSE 7.4 km/h 3.4 km/h 91 % 0.2 mm
10:24 13.3 °C 12.1 °C 1013.8 hPa North 3.7 km/h 0.5 km/h 92 % 0.2 mm
10:29 13.4 °C 12.1 °C 1013.8 hPa SSE 9.3 km/h 5.5 km/h 92 % 0.2 mm
10:34 13.4 °C 12.1 °C 1013.8 hPa SSE 9.3 km/h 5.1 km/h 92 % 0.41 mm
10:39 13.4 °C 12.2 °C 1013.8 hPa SSE 9.3 km/h 5.8 km/h 92 % 0.41 mm
10:44 13.5 °C 12.2 °C 1013.8 hPa SSE 11.3 km/h 8.5 km/h 92 % 0.41 mm
10:49 13.5 °C 12.2 °C 1013.8 hPa SSE 11.1 km/h 9.7 km/h 92 % 0.61 mm
10:54 13.5 °C 12.2 °C 1013.8 hPa SSE 13 km/h 8.4 km/h 92 % 0.41 mm
10:59 13.6 °C 12.4 °C 1013.8 hPa SSE 14.8 km/h 7.6 km/h 93 % 0.41 mm
11:04 13.6 °C 12.4 °C 1013.8 hPa SSE 16.7 km/h 8.9 km/h 93 % 0.41 mm
11:09 13.6 °C 12.4 °C 1013.8 hPa SSE 14.8 km/h 6.1 km/h 93 % 0.41 mm
11:14 13.6 °C 12.5 °C 1013.8 hPa SSE 11.1 km/h 4.8 km/h 93 % 0.61 mm
11:19 13.7 °C 12.6 °C 1013.8 hPa SSE 9.7 km/h 8.7 km/h 93 % 0.61 mm
11:24 13.7 °C 12.6 °C 1013.8 hPa North 9.3 km/h 2.9 km/h 93 % 0.61 mm
11:29 13.8 °C 12.7 °C 1013.8 hPa North 9.7 km/h 8 km/h 93 % 0.61 mm
11:34 13.7 °C 12.4 °C 1013.8 hPa SSE 16.7 km/h 11.3 km/h 92 % 0.61 mm
11:39 13.7 °C 12.6 °C 1013.8 hPa SSE 13 km/h 8.9 km/h 93 % 0.61 mm
11:44 13.7 °C 12.6 °C 1013.8 hPa SSE 11.3 km/h 7.4 km/h 93 % 0.61 mm
11:49 13.7 °C 12.6 °C 1013.4 hPa SSE 14.5 km/h 9 km/h 93 % 0.41 mm
11:54 13.6 °C 12.5 °C 1013.4 hPa SSE 16.7 km/h 13.2 km/h 93 % 0.61 mm
11:59 13.6 °C 12.5 °C 1013.4 hPa SSE 18.5 km/h 12.4 km/h 93 % 0.61 mm
12:04 13.6 °C 12.5 °C 1013.4 hPa SSE 11.1 km/h 10.1 km/h 93 % 0.79 mm
12:09 13.7 °C 12.4 °C 1013.4 hPa SSE 22.2 km/h 16.1 km/h 92 % 0.79 mm
12:14 13.6 °C 12.5 °C 1013.4 hPa SSE 11.1 km/h 7.1 km/h 93 % 0.61 mm
12:19 13.7 °C 12.6 °C 1013.4 hPa SSE 20.4 km/h 9.3 km/h 93 % 0.79 mm
12:24 13.7 °C 12.6 °C 1013.4 hPa SSE 20.4 km/h 13.5 km/h 93 % 0.99 mm
12:29 13.7 °C 12.6 °C 1013.4 hPa SSE 13 km/h 9.3 km/h 93 % 0.99 mm
12:34 13.7 °C 12.6 °C 1013.1 hPa SSE 20.4 km/h 12.7 km/h 93 % 0.79 mm
12:39 13.8 °C 12.7 °C 1013.1 hPa SSE 14.5 km/h 14.6 km/h 93 % 0.79 mm
12:44 13.8 °C 12.7 °C 1013.1 hPa SSE 22.5 km/h 10.8 km/h 93 % 0.79 mm
12:49 13.9 °C 12.8 °C 1013.1 hPa SSE 20.9 km/h 13.5 km/h 93 % 0.99 mm
12:54 13.9 °C 12.8 °C 1013.1 hPa SE 14.8 km/h 7.6 km/h 93 % 0.79 mm
12:59 13.9 °C 12.8 °C 1013.1 hPa SE 22.2 km/h 14.5 km/h 93 % 0.79 mm
13:04 13.9 °C 12.8 °C 1013.1 hPa SE 27.8 km/h 13.7 km/h 93 % 0.79 mm
13:09 13.9 °C 12.8 °C 1013.1 hPa SE 22.2 km/h 16.6 km/h 93 % 0.79 mm
13:14 13.9 °C 12.8 °C 1013.1 hPa SSE 13 km/h 8.7 km/h 93 % 0.79 mm
13:19 13.9 °C 12.8 °C 1013.1 hPa SSE 20.4 km/h 10.1 km/h 93 % 0.61 mm
13:24 13.9 °C 12.8 °C 1013.1 hPa SE 17.7 km/h 14.2 km/h 93 % 0.61 mm
13:29 13.9 °C 12.8 °C 1012.8 hPa SSE 16.7 km/h 9.2 km/h 93 % 0.61 mm
13:34 13.9 °C 12.8 °C 1012.8 hPa SSE 17.7 km/h 13.2 km/h 93 % 0.79 mm
13:39 13.9 °C 12.8 °C 1012.8 hPa SSE 25.9 km/h 17.9 km/h 93 % 0.99 mm
13:44 13.9 °C 12.8 °C 1012.8 hPa SSE 20.4 km/h 12.6 km/h 93 % 1.19 mm
13:49 13.9 °C 12.8 °C 1012.8 hPa SSE 14.5 km/h 16.3 km/h 93 % 0.99 mm
13:54 13.9 °C 13 °C 1012.8 hPa SE 13 km/h 7.7 km/h 94 % 1.19 mm
13:59 14 °C 13.1 °C 1012.8 hPa SE 18.5 km/h 11.9 km/h 94 % 1.4 mm
14:04 14 °C 12.9 °C 1012.8 hPa SE 20.4 km/h 17.9 km/h 93 % 1.19 mm
14:09 13.9 °C 12.8 °C 1013.1 hPa SE 20.9 km/h 14 km/h 93 % 1.19 mm
14:14 14 °C 13.1 °C 1013.1 hPa SE 17.7 km/h 11.3 km/h 94 % 1.4 mm
14:19 13.9 °C 12.8 °C 1013.1 hPa SSE 24.1 km/h 13.8 km/h 93 % 1.6 mm
14:24 13.8 °C 12.7 °C 1012.8 hPa SSE 16.7 km/h 10.8 km/h 93 % 1.4 mm
14:29 13.7 °C 12.6 °C 1013.1 hPa SE 14.8 km/h 13 km/h 93 % 1.8 mm
14:34 13.7 °C 12.6 °C 1013.1 hPa SSE 18.5 km/h 11.3 km/h 93 % 1.8 mm
14:39 13.7 °C 12.6 °C 1013.1 hPa SSE 13 km/h 8.5 km/h 93 % 2.01 mm
14:44 13.8 °C 12.7 °C 1013.1 hPa SSE 11.1 km/h 8.9 km/h 93 % 2.21 mm
14:49 13.9 °C 13 °C 1013.1 hPa SSE 14.8 km/h 7.6 km/h 94 % 2.39 mm
14:54 13.9 °C 13 °C 1013.1 hPa SSE 11.1 km/h 6 km/h 94 % 2.59 mm
14:59 13.9 °C 13 °C 1012.8 hPa SSE 7.4 km/h 4.2 km/h 94 % 2.79 mm
15:04 14 °C 13.1 °C 1012.8 hPa SSE 9.3 km/h 5.5 km/h 94 % 3 mm
15:09 14 °C 13.1 °C 1012.8 hPa SSE 9.3 km/h 7.7 km/h 94 % 3.2 mm
15:14 14 °C 13.1 °C 1012.8 hPa SSE 6.4 km/h 4.5 km/h 94 % 3.61 mm
15:19 14.1 °C 13.1 °C 1012.8 hPa SSE 18.5 km/h 10.5 km/h 94 % 3.61 mm
15:24 13.9 °C 13 °C 1012.8 hPa SE 18.5 km/h 10.9 km/h 94 % 3.99 mm
15:29 14 °C 13.1 °C 1012.8 hPa SE 16.7 km/h 11.6 km/h 94 % 3.61 mm
15:34 14 °C 13.1 °C 1012.8 hPa SE 11.1 km/h 4.5 km/h 94 % 3.61 mm
15:39 14 °C 13.1 °C 1012.8 hPa SE 14.8 km/h 9.2 km/h 94 % 3.4 mm
15:44 14.1 °C 13.2 °C 1012.8 hPa SE 13 km/h 5.8 km/h 94 % 3 mm
15:49 14.2 °C 13.4 °C 1012.8 hPa SE 14.5 km/h 8.4 km/h 95 % 3 mm
15:54 14.3 °C 13.3 °C 1012.8 hPa SSE 19.3 km/h 12.7 km/h 94 % 2.59 mm
15:59 14.2 °C 13.3 °C 1012.8 hPa SSE 13 km/h 10 km/h 94 % 2.21 mm
16:04 14.3 °C 13.4 °C 1012.8 hPa SSE 18.5 km/h 12.4 km/h 94 % 2.01 mm
16:09 14.3 °C 13.4 °C 1012.8 hPa SSE 18.5 km/h 11.1 km/h 94 % 1.8 mm
16:14 13.8 °C 12.7 °C 1012.8 hPa North 27.8 km/h 15.6 km/h 93 % 1.19 mm
16:19 13.6 °C 12.4 °C 1012.8 hPa South 29.6 km/h 17.7 km/h 93 % 0.99 mm
16:24 13.5 °C 12.6 °C 1012.8 hPa North 25.7 km/h 15.9 km/h 94 % 0.61 mm
16:29 13.4 °C 12.5 °C 1012.8 hPa South 29.6 km/h 15.8 km/h 94 % 0.61 mm
16:34 13.4 °C 12.4 °C 1012.8 hPa South 25.9 km/h 12.6 km/h 94 % 0.61 mm
16:39 13.3 °C 12.4 °C 1012.8 hPa South 16.7 km/h 8.5 km/h 94 % 0.41 mm
16:44 13.4 °C 12.4 °C 1012.8 hPa South 18.5 km/h 9.7 km/h 94 % 0.41 mm
16:49 13.4 °C 12.5 °C 1012.8 hPa South 16.7 km/h 10.1 km/h 94 % 0.2 mm
16:54 13.4 °C 12.4 °C 1012.8 hPa South 24.1 km/h 15.1 km/h 94 % 0.2 mm
16:59 13.4 °C 12.4 °C 1013.1 hPa South 22.2 km/h 18.8 km/h 94 % 0.2 mm
17:04 13.3 °C 12.4 °C 1013.1 hPa South 24.1 km/h 16.1 km/h 94 % 0.2 mm
17:09 13.4 °C 12.5 °C 1013.1 hPa South 20.4 km/h 8.5 km/h 94 % 0.2 mm
17:14 13.4 °C 12.4 °C 1013.1 hPa South 20.9 km/h 12.9 km/h 94 % 0.2 mm
17:19 13.4 °C 12.4 °C 1013.1 hPa SSE 20.4 km/h 13.8 km/h 94 % 0.2 mm
17:24 13.2 °C 12.1 °C 1013.1 hPa South 18.5 km/h 14 km/h 93 % 0.2 mm
17:29 12.9 °C 11.8 °C 1013.4 hPa South 31.5 km/h 25.1 km/h 93 % 0.2 mm
17:34 12.5 °C 11.4 °C 1013.4 hPa South 33.3 km/h 21.6 km/h 93 % 0 mm
17:39 12.4 °C 11.3 °C 1013.4 hPa SSE 24.1 km/h 15.3 km/h 93 % 0 mm
17:44 12.3 °C 11.2 °C 1013.4 hPa South 27.8 km/h 18.3 km/h 93 % 0 mm
17:49 12.2 °C 11.1 °C 1013.8 hPa SSE 22.5 km/h 17.5 km/h 93 % 0 mm
17:54 12.1 °C 11 °C 1013.8 hPa SSW 24.1 km/h 20.3 km/h 93 % 0 mm
17:59 12 °C 10.9 °C 1013.8 hPa SSE 22.5 km/h 15.9 km/h 93 % 0 mm
18:04 12 °C 10.9 °C 1013.8 hPa South 29.6 km/h 16.4 km/h 93 % 0 mm
18:09 11.9 °C 10.8 °C 1013.8 hPa South 19.3 km/h 17.9 km/h 93 % 0 mm
18:14 11.9 °C 10.9 °C 1014.1 hPa South 20.4 km/h 17.2 km/h 94 % 0 mm
18:19 11.9 °C 10.9 °C 1014.1 hPa SSE 22.2 km/h 11.7 km/h 94 % 0 mm
18:24 11.9 °C 10.9 °C 1014.1 hPa South 18.5 km/h 14.2 km/h 94 % 0.2 mm
18:29 11.9 °C 10.9 °C 1014.1 hPa South 20.4 km/h 16.3 km/h 94 % 0.2 mm
18:34 11.9 °C 10.9 °C 1014.1 hPa SSE 27.4 km/h 16.4 km/h 94 % 0.2 mm
18:39 11.9 °C 10.9 °C 1014.1 hPa SSE 20.9 km/h 12.7 km/h 94 % 0.2 mm
18:54 11.9 °C 11 °C 1014.4 hPa SSE 22.2 km/h 13 km/h 94 % 0.2 mm
18:59 11.9 °C 10.9 °C 1014.4 hPa SSE 16.7 km/h 12.1 km/h 94 % 0.2 mm
19:04 11.9 °C 10.9 °C 1014.4 hPa SSE 20.4 km/h 14.5 km/h 94 % 0.2 mm
19:09 11.9 °C 11 °C 1014.4 hPa South 25.9 km/h 14.2 km/h 94 % 0.2 mm
19:14 11.9 °C 10.9 °C 1014.4 hPa South 14.8 km/h 8.7 km/h 94 % 0.2 mm
19:19 11.8 °C 10.8 °C 1014.8 hPa South 27.8 km/h 15.8 km/h 94 % 0.2 mm
19:24 11.7 °C 10.8 °C 1014.8 hPa SSE 29.6 km/h 20.9 km/h 94 % 0.2 mm
19:29 11.7 °C 10.8 °C 1014.8 hPa South 27.8 km/h 15.8 km/h 94 % 0.2 mm
19:34 11.7 °C 10.7 °C 1014.8 hPa SE 22.2 km/h 8.2 km/h 94 % 0.2 mm
19:39 11.7 °C 10.7 °C 1015.1 hPa SSE 11.3 km/h 7.1 km/h 94 % 0 mm
19:44 11.5 °C 10.6 °C 1015.1 hPa South 24.1 km/h 20.9 km/h 94 % 0.2 mm
19:49 11.1 °C 10.2 °C 1015.1 hPa South 27.8 km/h 16.3 km/h 94 % 0.2 mm
19:54 10.9 °C 9.9 °C 1015.1 hPa North 38.9 km/h 11.7 km/h 94 % 0.2 mm
19:59 10.8 °C 9.8 °C 1015.1 hPa SSW 24.1 km/h 14.3 km/h 94 % 0.2 mm
20:04 10.7 °C 9.8 °C 1015.5 hPa SSW 31.5 km/h 18.5 km/h 94 % 0.2 mm
20:09 10.6 °C 9.6 °C 1015.5 hPa South 29.6 km/h 16.6 km/h 94 % 0.2 mm
20:14 10.5 °C 9.6 °C 1015.5 hPa South 22.2 km/h 16.1 km/h 94 % 0.2 mm
20:19 10.4 °C 9.5 °C 1015.8 hPa South 18.5 km/h 17.7 km/h 94 % 0.2 mm
20:24 10.3 °C 9.6 °C 1015.8 hPa South 20.4 km/h 16.6 km/h 95 % 0.2 mm
20:29 10.2 °C 9.4 °C 1015.8 hPa South 40.7 km/h 21.1 km/h 95 % 0.2 mm
20:34 10.2 °C 9.4 °C 1015.8 hPa South 30.6 km/h 17.4 km/h 95 % 0.2 mm
20:39 10.1 °C 9.3 °C 1016.1 hPa South 33.3 km/h 20.8 km/h 95 % 0.2 mm
20:44 9.8 °C 8.8 °C 1016.1 hPa SSE 38.9 km/h 21.7 km/h 94 % 0 mm
20:49 9.6 °C 8.8 °C 1016.1 hPa SSE 27.8 km/h 16.1 km/h 95 % 0 mm
20:54 9.6 °C 8.6 °C 1016.5 hPa South 20.4 km/h 13.2 km/h 94 % 0 mm
20:59 9.4 °C 8.5 °C 1016.5 hPa SSE 24.1 km/h 13.4 km/h 94 % 0 mm
21:04 9.4 °C 8.4 °C 1016.5 hPa South 31.5 km/h 15.9 km/h 94 % 0 mm
21:09 9.4 °C 8.4 °C 1016.5 hPa South 29.6 km/h 16.1 km/h 94 % 0 mm
21:14 9.4 °C 8.3 °C 1016.5 hPa South 24.1 km/h 16.9 km/h 93 % 0 mm
21:19 9.4 °C 8.3 °C 1016.8 hPa South 29.6 km/h 16.3 km/h 93 % 0 mm
21:24 9.4 °C 8.2 °C 1016.5 hPa South 25.9 km/h 18.2 km/h 92 % 0 mm
21:29 9.3 °C 8.1 °C 1016.8 hPa SSE 18.5 km/h 10 km/h 92 % 0 mm
21:34 9.2 °C 8 °C 1016.8 hPa South 17.7 km/h 12.4 km/h 92 % 0 mm
21:39 9.1 °C 7.7 °C 1016.8 hPa South 22.2 km/h 10 km/h 91 % 0 mm
21:44 9.1 °C 7.7 °C 1016.8 hPa South 24.1 km/h 15.9 km/h 91 % 0 mm
21:49 9.1 °C 7.7 °C 1016.8 hPa SSE 25.7 km/h 15.4 km/h 91 % 0 mm
21:54 9.2 °C 7.8 °C 1016.8 hPa South 25.9 km/h 18.2 km/h 91 % 0 mm
21:59 9.3 °C 8.1 °C 1016.8 hPa South 29.6 km/h 17.4 km/h 92 % 0 mm
22:04 9.3 °C 8.1 °C 1016.8 hPa SSW 31.5 km/h 17.7 km/h 92 % 0 mm
22:09 9.4 °C 8.2 °C 1016.8 hPa North 27.8 km/h 21.7 km/h 92 % 0 mm
22:14 9.4 °C 8.2 °C 1017.2 hPa SSE 37 km/h 21.4 km/h 92 % 0 mm
22:19 9.3 °C 8.1 °C 1017.2 hPa SSE 31.5 km/h 20.6 km/h 92 % 0 mm
22:24 8.9 °C 7.7 °C 1017.2 hPa South 41.8 km/h 23.3 km/h 92 % 0 mm
22:29 8.8 °C 7.6 °C 1017.2 hPa South 35.2 km/h 18.3 km/h 92 % 0 mm
22:34 8.8 °C 7.6 °C 1017.2 hPa South 25.9 km/h 14 km/h 92 % 0 mm
22:39 8.8 °C 7.6 °C 1017.2 hPa North 18.5 km/h 12.7 km/h 92 % 0 mm
22:44 8.7 °C 7.4 °C 1017.2 hPa South 33.8 km/h 18.8 km/h 92 % 0 mm
22:49 8.6 °C 7.4 °C 1017.5 hPa SSE 25.9 km/h 12.7 km/h 92 % 0 mm
22:54 8.4 °C 7.1 °C 1017.5 hPa South 30.6 km/h 16.1 km/h 91 % 0 mm
22:59 8.4 °C 6.7 °C 1017.5 hPa South 31.5 km/h 14.3 km/h 89 % 0 mm
23:04 8.3 °C 6.6 °C 1017.5 hPa North 20.4 km/h 17.1 km/h 89 % 0 mm
23:09 8.3 °C 6.2 °C 1017.5 hPa South 27.8 km/h 17.1 km/h 87 % 0 mm
23:14 8.3 °C 6.2 °C 1017.5 hPa SSW 20.9 km/h 14 km/h 87 % 0 mm
23:19 8.2 °C 6 °C 1017.5 hPa South 33.3 km/h 20.4 km/h 86 % 0 mm
23:24 8.2 °C 5.8 °C 1017.8 hPa SSW 32.2 km/h 19.6 km/h 85 % 0 mm
23:29 8.1 °C 5.9 °C 1017.8 hPa South 25.9 km/h 13.2 km/h 86 % 0 mm
23:34 8.1 °C 5.8 °C 1017.8 hPa South 24.1 km/h 12.1 km/h 86 % 0 mm
23:39 7.9 °C 5.6 °C 1017.8 hPa North 22.2 km/h 13.5 km/h 85 % 0 mm
23:44 7.8 °C 5.4 °C 1017.8 hPa South 25.9 km/h 16.4 km/h 85 % 0 mm
23:49 7.7 °C 5.2 °C 1017.8 hPa North 35.2 km/h 16.3 km/h 84 % 0 mm
23:54 7.7 °C 5.1 °C 1017.8 hPa South 18.5 km/h 11.7 km/h 84 % 0 mm
23:59 7.6 °C 4.8 °C 1018.2 hPa South 20.9 km/h 14 km/h 83 % 0 mm
Ararat Weather
Compliments of Weather Underground - 2.25 mb
Click here to send mail.


ABOUT

Live weather data from Ararat, Victoria, Australia, 3377
Data uploaded from Cumulus every 5 minutes to Weather Underground.
This site then downloads the raw data for formatting and display.
Metric and imperial data can be displayed. Graphs and historical data available.
Includes Sun and Moon times and rain image live from BOM.

Check out Ararat Weather on Facebook, Twitter and Google +

Help support ongoing costs by checking out the ads





Follow @AraratWeather